Archival Weather

Biggin Hill

Biggin Hill, United Kingdom (EGKB)

Report from: Sunday, September 25, 2022 3:20 PM BST
Current time: Saturday, March 2, 2024 9:18 AM GMT

Current weather – Weather history – Daily summaries
Weather forecast

Temperature14.0°C (57.2°F)
Dew point3.0°C (37.4°F)
Winds 7 kts (3.6 m/s, 8.1 mph) Vrb
Winds variableWinds variable from West (280°) to North (359.999999°)
Clouds Sky clear
Altimeter30.03 in.Hg (1017 mB)
Relative humidity47 %
Density altitude-131 ft. (-40 m)
Remarks Ceiling and visibility OK
Flight conditions Visual Meteorological Conditions
Raw dataEGKB 251420Z 32007KT 280V360 CAVOK 14/03 Q1017
An error has occurred. This application may no longer respond until reloaded. Reload 🗙